UAL1011 KDEN-KTPA
Flight info
| Callsign | UAL1011 |
|---|---|
| Flight time | N/A |
| Altitude | 33000 |
| Route | EPKEE7 DUUZE GCK TUL LIT STEIT ACORI MAATY5 |
| Aircraft | A21N/M-SDE2E3FGHIRWXY/LB1 |
Departure
| Time | 2026-05-05 16:05 |
|---|---|
| Airport | Denver International Airport (KDEN) |
Arrival
| Time | N/A |
|---|---|
| Airport | Tampa International Airport (KTPA) |
| Time | Latitude | Longitude | Altitude | Speed | Heading |
|---|---|---|---|---|---|
| 2026-05-05 15:09 | 39.85803 | -104.67857 | 5371 ft | 0 kts | 0° |
| 2026-05-05 15:50 | 39.85791 | -104.67857 | 5367 ft | 4 kts | 0° |
| 2026-05-05 15:50 | 39.85770 | -104.67857 | 5369 ft | 3 kts | 0° |
| 2026-05-05 15:51 | 39.85749 | -104.67857 | 5367 ft | 3 kts | 0° |
| 2026-05-05 15:51 | 39.85744 | -104.67857 | 5368 ft | 0 kts | 0° |
| 2026-05-05 15:55 | 39.85745 | -104.67857 | 5371 ft | 1 kts | 2° |
| 2026-05-05 15:55 | 39.85753 | -104.67838 | 5371 ft | 4 kts | 81° |
| 2026-05-05 15:55 | 39.85744 | -104.67784 | 5368 ft | 8 kts | 104° |
| 2026-05-05 15:56 | 39.85723 | -104.67701 | 5370 ft | 11 kts | 110° |
| 2026-05-05 15:56 | 39.85692 | -104.67590 | 5370 ft | 15 kts | 110° |
| 2026-05-05 15:56 | 39.85665 | -104.67448 | 5371 ft | 18 kts | 95° |
| 2026-05-05 15:56 | 39.85663 | -104.67278 | 5368 ft | 19 kts | 90° |
| 2026-05-05 15:57 | 39.85661 | -104.67101 | 5371 ft | 20 kts | 90° |
| 2026-05-05 15:57 | 39.85660 | -104.66920 | 5371 ft | 20 kts | 90° |
| 2026-05-05 15:57 | 39.85660 | -104.66738 | 5371 ft | 21 kts | 90° |
| 2026-05-05 15:57 | 39.85664 | -104.66554 | 5368 ft | 20 kts | 77° |
| 2026-05-05 15:58 | 39.85681 | -104.66388 | 5371 ft | 15 kts | 94° |
| 2026-05-05 15:58 | 39.85694 | -104.66254 | 5370 ft | 16 kts | 45° |
| 2026-05-05 15:58 | 39.85803 | -104.66231 | 5371 ft | 17 kts | 1° |
| 2026-05-05 15:58 | 39.85921 | -104.66230 | 5369 ft | 17 kts | 360° |
| 2026-05-05 15:59 | 39.86044 | -104.66229 | 5370 ft | 18 kts | 1° |
| 2026-05-05 15:59 | 39.86168 | -104.66227 | 5371 ft | 19 kts | 1° |
| 2026-05-05 15:59 | 39.86300 | -104.66225 | 5370 ft | 19 kts | 360° |
| 2026-05-05 15:59 | 39.86436 | -104.66224 | 5369 ft | 20 kts | 1° |
| 2026-05-05 16:00 | 39.86577 | -104.66221 | 5369 ft | 21 kts | 0° |
| 2026-05-05 16:00 | 39.86722 | -104.66220 | 5369 ft | 21 kts | 0° |
| 2026-05-05 16:00 | 39.86869 | -104.66220 | 5369 ft | 22 kts | 1° |
| 2026-05-05 16:00 | 39.87024 | -104.66216 | 5370 ft | 23 kts | 1° |
| 2026-05-05 16:01 | 39.87182 | -104.66213 | 5369 ft | 23 kts | 0° |
| 2026-05-05 16:01 | 39.87346 | -104.66213 | 5369 ft | 24 kts | 1° |
| 2026-05-05 16:01 | 39.87501 | -104.66210 | 5370 ft | 19 kts | 1° |
| 2026-05-05 16:01 | 39.87613 | -104.66208 | 5371 ft | 6 kts | 0° |
| 2026-05-05 16:02 | 39.87624 | -104.66208 | 5369 ft | 0 kts | 0° |
| 2026-05-05 16:03 | 39.87630 | -104.66208 | 5370 ft | 3 kts | 0° |
| 2026-05-05 16:03 | 39.87670 | -104.66207 | 5369 ft | 8 kts | 0° |
| 2026-05-05 16:04 | 39.87744 | -104.66183 | 5371 ft | 14 kts | 45° |
| 2026-05-05 16:04 | 39.87760 | -104.66041 | 5369 ft | 18 kts | 91° |
| 2026-05-05 16:04 | 39.87757 | -104.65755 | 5370 ft | 59 kts | 90° |
| 2026-05-05 16:04 | 39.87753 | -104.64922 | 5369 ft | 122 kts | 91° |
| 2026-05-05 16:05 | 39.87745 | -104.63592 | 5368 ft | 166 kts | 90° |
| 2026-05-05 16:05 | 39.87723 | -104.61957 | 5490 ft | 187 kts | 91° |
| 2026-05-05 16:05 | 39.87640 | -104.60288 | 6103 ft | 182 kts | 91° |
| 2026-05-05 16:05 | 39.87467 | -104.58658 | 6696 ft | 188 kts | 107° |
| 2026-05-05 16:06 | 39.86916 | -104.57055 | 7068 ft | 201 kts | 113° |
| 2026-05-05 16:06 | 39.86320 | -104.55348 | 7444 ft | 214 kts | 112° |
| 2026-05-05 16:06 | 39.85704 | -104.53529 | 7716 ft | 233 kts | 113° |
| 2026-05-05 16:06 | 39.85023 | -104.51487 | 8016 ft | 252 kts | 114° |
| 2026-05-05 16:07 | 39.84315 | -104.49356 | 8597 ft | 257 kts | 115° |
| 2026-05-05 16:07 | 39.83621 | -104.47264 | 9362 ft | 255 kts | 116° |
| 2026-05-05 16:07 | 39.82906 | -104.45116 | 9834 ft | 263 kts | 116° |
| 2026-05-05 16:07 | 39.82177 | -104.42911 | 10020 ft | 265 kts | 116° |
| 2026-05-05 16:08 | 39.81443 | -104.40705 | 10040 ft | 265 kts | 117° |
| 2026-05-05 16:08 | 39.80678 | -104.38429 | 10053 ft | 287 kts | 117° |
| 2026-05-05 16:08 | 39.79828 | -104.35981 | 10196 ft | 308 kts | 117° |
| 2026-05-05 16:08 | 39.78922 | -104.33370 | 10445 ft | 324 kts | 117° |
| 2026-05-05 16:09 | 39.77983 | -104.30662 | 10937 ft | 331 kts | 117° |
| 2026-05-05 16:09 | 39.77029 | -104.27909 | 11479 ft | 337 kts | 117° |
| 2026-05-05 16:09 | 39.76062 | -104.25132 | 12054 ft | 342 kts | 117° |
| 2026-05-05 16:09 | 39.75067 | -104.22273 | 12587 ft | 349 kts | 116° |
| 2026-05-05 16:10 | 39.74059 | -104.19376 | 13134 ft | 355 kts | 116° |
| 2026-05-05 16:10 | 39.73031 | -104.16430 | 13695 ft | 361 kts | 116° |
| 2026-05-05 16:10 | 39.71985 | -104.13440 | 14230 ft | 365 kts | 116° |
| 2026-05-05 16:10 | 39.70917 | -104.10418 | 14800 ft | 368 kts | 116° |
| 2026-05-05 16:11 | 39.69841 | -104.07387 | 15363 ft | 372 kts | 116° |
| 2026-05-05 16:11 | 39.66554 | -103.98118 | 17053 ft | 382 kts | 116° |
| 2026-05-05 16:12 | 39.65417 | -103.94985 | 17605 ft | 385 kts | 118° |
| 2026-05-05 16:12 | 39.62899 | -103.88787 | 18653 ft | 391 kts | 120° |
| 2026-05-05 16:13 | 39.59099 | -103.79316 | 19968 ft | 402 kts | 114° |
| 2026-05-05 16:13 | 39.58102 | -103.75908 | 20388 ft | 406 kts | 111° |
| 2026-05-05 16:13 | 39.57139 | -103.72455 | 20797 ft | 409 kts | 111° |
| 2026-05-05 16:14 | 39.55181 | -103.65468 | 21609 ft | 415 kts | 112° |
| 2026-05-05 16:14 | 39.53179 | -103.58392 | 22391 ft | 422 kts | 112° |
| 2026-05-05 16:15 | 39.51149 | -103.51228 | 23044 ft | 425 kts | 112° |
| 2026-05-05 16:15 | 39.49099 | -103.44033 | 23165 ft | 428 kts | 112° |
| 2026-05-05 16:16 | 39.47028 | -103.36776 | 23270 ft | 430 kts | 112° |
| 2026-05-05 16:16 | 39.44949 | -103.29520 | 23286 ft | 431 kts | 113° |
| 2026-05-05 16:17 | 39.42860 | -103.22241 | 23531 ft | 433 kts | 113° |
| 2026-05-05 16:17 | 39.41805 | -103.18572 | 23707 ft | 435 kts | 113° |
| 2026-05-05 16:18 | 39.39695 | -103.11250 | 23894 ft | 435 kts | 113° |
| 2026-05-05 16:18 | 39.38991 | -103.08811 | 23879 ft | 436 kts | 113° |
| 2026-05-05 16:18 | 39.36858 | -103.01444 | 23903 ft | 438 kts | 114° |
| 2026-05-05 16:19 | 39.35785 | -102.97743 | 24118 ft | 441 kts | 114° |
| 2026-05-05 16:19 | 39.34625 | -102.94080 | 24385 ft | 441 kts | 119° |
| 2026-05-05 16:19 | 39.31867 | -102.86974 | 24929 ft | 446 kts | 121° |
| 2026-05-05 16:20 | 39.29037 | -102.79803 | 25439 ft | 450 kts | 122° |
| 2026-05-05 16:20 | 39.26188 | -102.72557 | 25850 ft | 455 kts | 122° |
| 2026-05-05 16:21 | 39.23299 | -102.65217 | 26321 ft | 461 kts | 122° |
| 2026-05-05 16:22 | 39.18897 | -102.54066 | 27017 ft | 469 kts | 123° |
| 2026-05-05 16:22 | 39.15916 | -102.46543 | 27453 ft | 473 kts | 123° |
| 2026-05-05 16:23 | 39.12905 | -102.38970 | 27879 ft | 478 kts | 123° |
| 2026-05-05 16:23 | 39.11395 | -102.35199 | 28073 ft | 480 kts | 123° |
| 2026-05-05 16:23 | 39.08314 | -102.27529 | 28477 ft | 485 kts | 123° |
| 2026-05-05 16:24 | 39.06762 | -102.23672 | 28674 ft | 487 kts | 124° |
| 2026-05-05 16:24 | 39.05204 | -102.19797 | 28854 ft | 489 kts | 124° |
| 2026-05-05 16:24 | 39.02062 | -102.12008 | 29228 ft | 494 kts | 124° |
| 2026-05-05 16:25 | 39.00474 | -102.08077 | 29415 ft | 495 kts | 124° |
| 2026-05-05 16:25 | 38.97281 | -102.00193 | 29783 ft | 499 kts | 124° |
| 2026-05-05 16:25 | 38.95671 | -101.96236 | 29960 ft | 501 kts | 124° |
| 2026-05-05 16:26 | 38.92447 | -101.88290 | 30259 ft | 504 kts | 124° |
| 2026-05-05 16:26 | 38.89187 | -101.80282 | 30505 ft | 508 kts | 124° |
| 2026-05-05 16:27 | 38.87558 | -101.76292 | 30623 ft | 510 kts | 124° |
| 2026-05-05 16:27 | 38.85847 | -101.72330 | 30718 ft | 508 kts | 129° |
| 2026-05-05 16:27 | 38.83725 | -101.68782 | 30850 ft | 497 kts | 142° |
| 2026-05-05 16:27 | 38.81309 | -101.65932 | 30964 ft | 489 kts | 149° |
| 2026-05-05 16:28 | 38.78675 | -101.63170 | 31113 ft | 488 kts | 150° |
| 2026-05-05 16:28 | 38.76024 | -101.60428 | 31248 ft | 490 kts | 150° |
| 2026-05-05 16:28 | 38.73380 | -101.57666 | 31393 ft | 491 kts | 150° |
| 2026-05-05 16:28 | 38.70740 | -101.54883 | 31533 ft | 492 kts | 149° |
| 2026-05-05 16:29 | 38.68104 | -101.52093 | 31666 ft | 493 kts | 149° |
| 2026-05-05 16:29 | 38.65461 | -101.49296 | 31793 ft | 493 kts | 149° |
| 2026-05-05 16:29 | 38.62814 | -101.46496 | 31915 ft | 494 kts | 149° |
| 2026-05-05 16:29 | 38.60180 | -101.43713 | 32031 ft | 495 kts | 149° |
| 2026-05-05 16:30 | 38.57520 | -101.40901 | 32160 ft | 496 kts | 150° |
| 2026-05-05 16:30 | 38.54851 | -101.38085 | 32285 ft | 497 kts | 150° |
| 2026-05-05 16:30 | 38.52188 | -101.35281 | 32409 ft | 497 kts | 150° |
| 2026-05-05 16:30 | 38.49518 | -101.32473 | 32541 ft | 497 kts | 150° |
| 2026-05-05 16:31 | 38.46844 | -101.29664 | 32675 ft | 498 kts | 150° |
| 2026-05-05 16:31 | 38.44190 | -101.26876 | 32788 ft | 499 kts | 150° |
| 2026-05-05 16:31 | 38.41510 | -101.24064 | 32908 ft | 499 kts | 150° |
| 2026-05-05 16:31 | 38.38848 | -101.21275 | 33026 ft | 499 kts | 150° |
| 2026-05-05 16:32 | 38.33462 | -101.15644 | 33022 ft | 504 kts | 150° |
| 2026-05-05 16:32 | 38.28200 | -101.10137 | 32967 ft | 499 kts | 150° |
| 2026-05-05 16:33 | 38.22889 | -101.04611 | 32973 ft | 500 kts | 150° |
| 2026-05-05 16:33 | 38.17516 | -100.99023 | 32962 ft | 500 kts | 150° |
| 2026-05-05 16:34 | 38.12115 | -100.93421 | 32958 ft | 501 kts | 150° |
| 2026-05-05 16:34 | 38.06713 | -100.87818 | 32970 ft | 502 kts | 150° |
| 2026-05-05 16:35 | 38.01297 | -100.82217 | 32998 ft | 504 kts | 150° |
| 2026-05-05 16:35 | 37.95852 | -100.76600 | 32997 ft | 505 kts | 150° |
| 2026-05-05 16:36 | 37.93248 | -100.73543 | 32988 ft | 518 kts | 140° |
| 2026-05-05 16:36 | 37.91091 | -100.69837 | 32982 ft | 529 kts | 125° |
| 2026-05-05 16:36 | 37.88151 | -100.61231 | 33012 ft | 539 kts | 115° |
| 2026-05-05 16:37 | 37.85405 | -100.52379 | 32982 ft | 540 kts | 116° |
| 2026-05-05 16:37 | 37.82579 | -100.43583 | 32958 ft | 539 kts | 116° |
| 2026-05-05 16:38 | 37.79725 | -100.34820 | 32938 ft | 537 kts | 116° |
| 2026-05-05 16:38 | 37.76854 | -100.26034 | 32957 ft | 539 kts | 116° |
| 2026-05-05 16:39 | 37.73990 | -100.17236 | 32973 ft | 544 kts | 116° |
| 2026-05-05 16:39 | 37.71137 | -100.08492 | 32974 ft | 546 kts | 116° |
| 2026-05-05 16:40 | 37.68193 | -99.99526 | 32990 ft | 552 kts | 116° |
| 2026-05-05 16:40 | 37.65277 | -99.90673 | 32981 ft | 543 kts | 116° |
| 2026-05-05 16:41 | 37.62383 | -99.81903 | 32968 ft | 545 kts | 116° |
| 2026-05-05 16:41 | 37.59437 | -99.73042 | 32947 ft | 542 kts | 116° |
| 2026-05-05 16:42 | 37.56538 | -99.64319 | 32920 ft | 538 kts | 116° |
| 2026-05-05 16:42 | 37.53652 | -99.55644 | 32915 ft | 538 kts | 116° |
| 2026-05-05 16:43 | 37.50744 | -99.46940 | 32915 ft | 539 kts | 116° |
| 2026-05-05 16:43 | 37.47828 | -99.38244 | 32918 ft | 538 kts | 116° |
| 2026-05-05 16:44 | 37.44892 | -99.29522 | 32920 ft | 544 kts | 116° |
| 2026-05-05 16:44 | 37.41921 | -99.20722 | 32922 ft | 552 kts | 116° |
| 2026-05-05 16:45 | 37.38889 | -99.11779 | 32918 ft | 559 kts | 115° |
| 2026-05-05 16:45 | 37.35817 | -99.02735 | 32919 ft | 565 kts | 115° |
| 2026-05-05 16:46 | 37.33240 | -98.95172 | 32912 ft | 568 kts | 115° |